createdAt,value
2018-04-27T00:00:43.725Z,6.00
2018-04-27T00:03:10.029Z,5.90
2018-04-27T00:05:36.389Z,5.90
2018-04-27T00:08:02.748Z,5.90
2018-04-27T00:10:29.202Z,5.80
2018-04-27T00:12:55.589Z,5.80
2018-04-27T00:15:22.301Z,5.80
2018-04-27T00:17:48.763Z,5.80
2018-04-27T00:20:15.095Z,5.70
2018-04-27T00:22:41.762Z,5.70
2018-04-27T00:25:08.718Z,5.70
2018-04-27T00:27:35.228Z,5.60
2018-04-27T00:30:05.022Z,5.60
2018-04-27T00:32:32.070Z,5.50
2018-04-27T00:34:59.175Z,5.50
2018-04-27T00:37:25.515Z,5.40
2018-04-27T00:39:51.850Z,5.50
2018-04-27T00:42:18.105Z,5.50
2018-04-27T00:44:45.153Z,5.40
2018-04-27T00:47:12.128Z,5.40
2018-04-27T00:49:38.379Z,5.40
2018-04-27T00:52:04.567Z,5.50
2018-04-27T00:54:31.494Z,5.40
2018-04-27T00:56:57.687Z,5.40
2018-04-27T00:59:23.871Z,5.30
2018-04-27T01:01:50.958Z,5.30
2018-04-27T01:04:17.261Z,5.30
2018-04-27T01:06:43.518Z,5.30
2018-04-27T01:09:09.787Z,5.30
2018-04-27T01:11:36.055Z,5.30
2018-04-27T01:14:02.340Z,5.30
2018-04-27T01:16:28.616Z,5.30
2018-04-27T01:18:54.844Z,5.30
2018-04-27T01:21:21.114Z,5.20
2018-04-27T01:23:47.410Z,5.10
2018-04-27T01:26:13.606Z,5.10
2018-04-27T01:28:40.619Z,5.10
2018-04-27T01:31:06.816Z,5.10
2018-04-27T01:33:33.059Z,5.10
2018-04-27T01:35:59.384Z,5.10
2018-04-27T01:38:26.103Z,5.00
2018-04-27T01:40:53.155Z,5.00
2018-04-27T01:43:19.445Z,4.90
2018-04-27T01:45:45.696Z,4.90
2018-04-27T01:48:12.661Z,4.90
2018-04-27T01:50:38.919Z,4.80
2018-04-27T01:53:05.116Z,4.90
2018-04-27T01:55:32.048Z,4.90
2018-04-27T01:57:58.367Z,4.80
2018-04-27T02:00:24.614Z,4.80
2018-04-27T02:02:51.678Z,4.80
2018-04-27T02:05:17.904Z,4.80
2018-04-27T02:07:44.804Z,4.80
2018-04-27T02:10:10.995Z,4.70
2018-04-27T02:12:37.246Z,4.80
2018-04-27T02:15:03.476Z,4.80
2018-04-27T02:17:29.624Z,4.80
2018-04-27T02:19:55.905Z,4.70
2018-04-27T02:22:22.064Z,4.80
2018-04-27T02:24:48.189Z,4.80
2018-04-27T02:27:14.311Z,4.80
2018-04-27T02:29:40.445Z,4.80
2018-04-27T02:32:06.562Z,4.80
2018-04-27T02:34:32.675Z,4.80
2018-04-27T02:36:58.817Z,4.80
2018-04-27T02:39:24.947Z,4.80
2018-04-27T02:41:51.104Z,4.80
2018-04-27T02:44:17.287Z,4.80
2018-04-27T02:46:43.460Z,4.90
2018-04-27T02:49:09.579Z,4.90
2018-04-27T02:51:35.705Z,4.90
2018-04-27T02:54:01.851Z,5.00
2018-04-27T02:56:28.803Z,5.00
2018-04-27T02:58:55.707Z,5.10
2018-04-27T03:01:22.006Z,5.00
2018-04-27T03:03:48.904Z,5.00
2018-04-27T04:40:54.222Z,4.90
2018-04-27T04:43:21.082Z,5.00
2018-04-27T04:45:47.241Z,4.90
2018-04-27T04:48:13.416Z,5.00
2018-04-27T04:50:39.601Z,5.10
2018-04-27T04:53:05.774Z,5.10
2018-04-27T04:55:31.946Z,5.10
2018-04-27T04:57:58.185Z,5.10
2018-04-27T05:00:24.629Z,5.20
2018-04-27T05:02:50.966Z,5.20
2018-04-27T05:05:17.800Z,5.20
2018-04-27T05:07:44.008Z,5.20
2018-04-27T05:10:10.194Z,5.20
2018-04-27T05:12:36.362Z,5.20
2018-04-27T05:15:02.683Z,5.20
2018-04-27T05:17:29.142Z,5.30
2018-04-27T05:19:55.096Z,5.40
2018-04-27T05:22:21.324Z,5.50
2018-04-27T05:24:47.564Z,5.60
2018-04-27T05:27:14.488Z,5.70
2018-04-27T05:29:41.168Z,5.70
2018-04-27T05:32:07.464Z,5.80
2018-04-27T05:34:34.074Z,5.90
2018-04-27T05:37:00.274Z,6.00
2018-04-27T05:39:26.507Z,6.00
2018-04-27T05:41:52.747Z,6.10
2018-04-27T05:44:18.963Z,6.20
2018-04-27T05:46:45.205Z,6.20
2018-04-27T05:49:11.358Z,6.30
2018-04-27T05:51:37.577Z,6.40
2018-04-27T05:54:03.779Z,6.40
2018-04-27T05:56:30.119Z,6.50
2018-04-27T05:58:56.343Z,6.60
2018-04-27T06:01:22.820Z,6.70
2018-04-27T06:04:01.234Z,6.80
2018-04-27T06:06:27.551Z,6.90
2018-04-27T06:08:53.845Z,7.00
2018-04-27T06:11:20.073Z,7.00
2018-04-27T06:13:46.622Z,7.00
2018-04-27T06:16:12.858Z,7.10
2018-04-27T06:18:38.984Z,7.20
2018-04-27T06:21:05.898Z,7.40
2018-04-27T06:23:32.644Z,7.50
2018-04-27T06:25:59.826Z,7.60
2018-04-27T06:28:26.058Z,7.70
2018-04-27T06:30:52.787Z,7.80
2018-04-27T06:33:19.395Z,7.90
2018-04-27T06:35:46.685Z,8.10
2018-04-27T06:38:13.085Z,8.10
2018-04-27T06:40:39.285Z,8.30
2018-04-27T06:43:06.259Z,8.70
2018-04-27T06:45:32.511Z,8.70
2018-04-27T07:00:10.292Z,9.70
2018-04-27T07:02:36.559Z,9.90
2018-04-27T07:05:02.884Z,10.00
2018-04-27T07:07:29.413Z,10.10
2018-04-27T07:09:55.746Z,10.10
2018-04-27T07:12:22.062Z,10.30
2018-04-27T07:14:49.110Z,10.60
2018-04-27T07:17:15.299Z,10.60
2018-04-27T07:19:42.225Z,10.80
2018-04-27T07:22:08.832Z,10.70
2018-04-27T07:24:35.492Z,10.90
2018-04-27T07:27:02.146Z,11.00
2018-04-27T07:29:28.413Z,11.00
2018-04-27T07:31:54.903Z,11.10
2018-04-27T07:34:21.209Z,11.20
2018-04-27T07:36:47.440Z,11.20
2018-04-27T07:39:13.806Z,11.20
2018-04-27T07:41:40.936Z,11.30
2018-04-27T07:44:07.178Z,11.20
2018-04-27T07:46:33.965Z,11.30
2018-04-27T07:49:01.575Z,11.30
2018-04-27T07:51:27.768Z,11.30
2018-04-27T07:53:53.950Z,11.30
2018-04-27T07:56:20.876Z,11.40
2018-04-27T07:58:47.689Z,11.40
2018-04-27T08:01:14.298Z,11.40
2018-04-27T08:03:41.595Z,11.60
2018-04-27T08:06:08.709Z,11.90
2018-04-27T08:08:35.130Z,11.80
2018-04-27T08:11:01.291Z,12.00
2018-04-27T08:13:27.946Z,12.10
2018-04-27T08:15:54.442Z,12.20
2018-04-27T08:18:22.637Z,12.20
2018-04-27T08:20:49.503Z,12.30
2018-04-27T08:23:16.476Z,12.30
2018-04-27T08:25:42.784Z,12.40
2018-04-27T08:28:09.293Z,12.60
2018-04-27T08:30:36.136Z,12.60
2018-04-27T08:33:03.235Z,12.80
2018-04-27T08:35:30.153Z,12.90
2018-04-27T08:37:56.721Z,13.00
2018-04-27T08:40:23.714Z,13.30
2018-04-27T08:42:50.157Z,13.20
2018-04-27T08:45:17.219Z,13.50
2018-04-27T08:47:43.525Z,13.50
2018-04-27T08:50:09.779Z,13.60
2018-04-27T08:52:35.992Z,13.50
2018-04-27T08:55:02.312Z,13.60
2018-04-27T08:57:28.676Z,13.70
2018-04-27T08:59:55.331Z,13.80
2018-04-27T09:02:21.731Z,13.90
2018-04-27T09:04:48.200Z,14.20
2018-04-27T09:07:14.791Z,14.40
2018-04-27T09:09:41.358Z,14.60
2018-04-27T09:12:09.325Z,14.70
2018-04-27T09:14:35.644Z,14.70
2018-04-27T09:17:02.105Z,14.80
2018-04-27T09:19:28.609Z,14.90
2018-04-27T09:21:54.809Z,15.00
2018-04-27T09:24:21.133Z,15.00
2018-04-27T09:26:47.447Z,15.10
2018-04-27T09:29:13.665Z,15.20
2018-04-27T09:31:40.645Z,15.10
2018-04-27T09:34:07.886Z,15.10
2018-04-27T09:36:34.110Z,15.20
2018-04-27T09:39:00.285Z,15.30
2018-04-27T09:41:26.551Z,15.50
2018-04-27T09:43:53.041Z,15.50
2018-04-27T09:46:19.297Z,15.60
2018-04-27T09:48:45.735Z,15.90
2018-04-27T09:51:11.998Z,16.00
2018-04-27T09:53:38.171Z,15.90
2018-04-27T09:56:04.678Z,15.90
2018-04-27T09:58:30.895Z,15.90
2018-04-27T10:00:57.109Z,16.10
2018-04-27T10:03:23.308Z,16.30
2018-04-27T10:05:49.688Z,16.30
2018-04-27T10:08:15.972Z,16.50
2018-04-27T10:10:43.393Z,16.30
2018-04-27T10:13:09.585Z,16.20
2018-04-27T10:15:36.534Z,16.40
2018-04-27T10:18:03.426Z,16.50
2018-04-27T10:20:29.640Z,16.50
2018-04-27T10:22:55.876Z,16.70
2018-04-27T10:25:22.095Z,16.80
2018-04-27T10:27:48.374Z,16.70
2018-04-27T10:30:15.290Z,16.90
2018-04-27T10:32:41.558Z,16.90
2018-04-27T10:35:07.748Z,17.00
2018-04-27T10:37:34.178Z,17.00
2018-04-27T10:40:03.674Z,16.80
2018-04-27T10:42:30.381Z,16.70
2018-04-27T10:44:56.543Z,16.70
2018-04-27T10:47:22.716Z,16.90
2018-04-27T10:49:48.920Z,17.10
2018-04-27T10:52:18.139Z,17.20
2018-04-27T10:54:44.574Z,17.40
2018-04-27T10:57:12.379Z,17.50
2018-04-27T10:59:39.333Z,17.60
2018-04-27T11:02:07.102Z,17.70
2018-04-27T11:04:35.218Z,17.40
2018-04-27T11:07:01.630Z,17.40
2018-04-27T11:09:27.820Z,17.30
2018-04-27T11:11:54.171Z,17.30
2018-04-27T11:14:20.453Z,17.30
2018-04-27T11:16:47.424Z,17.40
2018-04-27T11:19:14.588Z,17.40
2018-04-27T11:21:40.839Z,17.50
2018-04-27T11:24:07.075Z,17.70
2018-04-27T11:26:34.091Z,18.30
2018-04-27T11:29:00.279Z,18.30
2018-04-27T11:31:27.255Z,18.50
2018-04-27T11:33:53.390Z,18.40
2018-04-27T11:36:19.530Z,18.50
2018-04-27T11:38:45.712Z,18.50
2018-04-27T11:41:12.703Z,18.40
2018-04-27T11:43:38.837Z,18.40
2018-04-27T11:46:05.338Z,18.50
2018-04-27T11:48:31.659Z,18.40
2018-04-27T11:50:58.569Z,18.50
2018-04-27T11:53:24.737Z,18.50
2018-04-27T11:55:51.710Z,18.70
2018-04-27T11:58:17.994Z,18.70
2018-04-27T12:00:44.941Z,18.90
2018-04-27T12:03:11.884Z,19.00
2018-04-27T12:05:38.216Z,19.00
2018-04-27T12:08:05.138Z,19.00
2018-04-27T12:10:31.255Z,19.00
2018-04-27T12:12:57.385Z,19.10
2018-04-27T12:15:24.502Z,19.20
2018-04-27T12:17:57.652Z,19.00
2018-04-27T12:20:23.863Z,19.00
2018-04-27T12:22:50.052Z,18.80
2018-04-27T12:25:17.644Z,18.60
2018-04-27T12:27:43.903Z,18.70
2018-04-27T12:30:10.058Z,18.70
2018-04-27T12:32:36.321Z,18.60
2018-04-27T12:35:02.639Z,18.50
2018-04-27T12:37:28.826Z,18.40
2018-04-27T12:39:56.038Z,18.40
2018-04-27T12:42:22.251Z,18.60
2018-04-27T12:44:48.680Z,18.70
2018-04-27T12:47:16.662Z,18.90
2018-04-27T12:49:42.928Z,18.80
2018-04-27T12:52:09.141Z,18.80
2018-04-27T12:54:35.246Z,18.80
2018-04-27T12:57:01.780Z,19.00
2018-04-27T12:59:29.009Z,19.20
2018-04-27T13:01:55.232Z,19.20
2018-04-27T13:04:22.467Z,19.30
2018-04-27T13:06:49.704Z,19.50
2018-04-27T13:09:17.487Z,19.30
2018-04-27T13:11:45.045Z,19.30
2018-04-27T13:14:12.332Z,19.10
2018-04-27T13:16:39.596Z,19.10
2018-04-27T14:26:08.143Z,20.80
2018-04-27T14:28:35.025Z,21.00
2018-04-27T14:31:05.589Z,21.20
2018-04-27T14:33:35.529Z,21.40
2018-04-27T14:36:02.093Z,21.60
2018-04-27T14:38:28.981Z,21.60
2018-04-27T14:40:56.860Z,22.00
2018-04-27T14:43:25.217Z,22.20
2018-04-27T14:45:53.846Z,22.00
2018-04-27T14:48:21.355Z,22.10
2018-04-27T14:50:48.915Z,22.00
2018-04-27T14:53:15.705Z,22.10
2018-04-27T14:55:42.496Z,22.40
2018-04-27T14:58:09.710Z,22.30
2018-04-27T15:00:36.666Z,22.20
2018-04-27T15:03:03.979Z,22.40
2018-04-27T15:05:30.941Z,22.40
2018-04-27T15:07:58.162Z,22.60
2018-04-27T15:10:25.509Z,22.70
2018-04-27T15:12:52.074Z,22.80
2018-04-27T15:15:18.783Z,23.10
2018-04-27T15:17:46.778Z,23.30
2018-04-27T15:20:13.085Z,23.30
2018-04-27T15:22:40.331Z,23.30
2018-04-27T15:25:06.474Z,23.10
2018-04-27T15:27:33.357Z,22.80
2018-04-27T15:29:59.667Z,22.70
2018-04-27T15:32:25.828Z,22.70
2018-04-27T15:34:52.074Z,22.50
2018-04-27T15:37:18.458Z,22.30
2018-04-27T15:39:44.780Z,22.80
2018-04-27T15:42:11.040Z,24.00
2018-04-27T15:44:37.229Z,25.20
2018-04-27T15:47:03.528Z,26.70
2018-04-27T15:49:30.478Z,27.10
2018-04-27T15:51:56.705Z,27.10
2018-04-27T15:54:22.768Z,27.50
2018-04-27T15:56:48.917Z,28.00
2018-04-27T15:59:15.085Z,28.30
2018-04-27T16:01:41.234Z,28.10
2018-04-27T16:04:09.218Z,28.20
2018-04-27T16:06:36.124Z,28.90
2018-04-27T16:09:02.279Z,28.80
2018-04-27T16:11:29.158Z,28.20
2018-04-27T16:13:57.509Z,28.20
2018-04-27T16:16:25.621Z,28.20
2018-04-27T16:18:51.768Z,28.10
2018-04-27T16:21:17.934Z,28.30
2018-04-27T16:23:44.972Z,28.20
2018-04-27T16:26:12.268Z,28.90
2018-04-27T16:28:38.527Z,28.80
2018-04-27T16:31:05.228Z,28.60
2018-04-27T16:33:31.867Z,28.30
2018-04-27T16:35:58.846Z,27.20
2018-04-27T16:38:25.040Z,27.20
2018-04-27T16:40:52.190Z,25.10
2018-04-27T16:43:18.747Z,23.20
2018-04-27T16:45:46.600Z,22.00
2018-04-27T16:48:13.259Z,22.00
2018-04-27T16:50:40.048Z,21.50
2018-04-27T16:53:06.378Z,22.00
2018-04-27T16:55:33.919Z,22.10
2018-04-27T16:58:01.336Z,22.10
2018-04-27T17:00:28.386Z,22.70
2018-04-27T17:02:54.655Z,23.60
2018-04-27T17:05:21.629Z,23.50
2018-04-27T17:07:47.847Z,23.50
2018-04-27T17:10:14.788Z,22.80
2018-04-27T17:12:43.130Z,22.20
2018-04-27T17:15:11.995Z,21.40
2018-04-27T17:17:38.643Z,21.10
2018-04-27T17:20:05.138Z,21.00
2018-04-27T17:22:33.673Z,20.70
2018-04-27T17:25:00.219Z,20.40
2018-04-27T17:27:28.305Z,20.00
2018-04-27T17:29:55.560Z,19.90
2018-04-27T17:32:24.190Z,19.90
2018-04-27T17:34:50.772Z,19.90
2018-04-27T17:37:17.229Z,19.90
2018-04-27T17:39:43.783Z,19.90
2018-04-27T17:42:11.717Z,20.00
2018-04-27T17:44:38.085Z,20.10
2018-04-27T17:47:05.185Z,19.70
2018-04-27T17:49:31.348Z,19.60
2018-04-27T17:51:58.553Z,19.50
2018-04-27T17:54:24.744Z,19.60
2018-04-27T17:56:50.889Z,19.50
2018-04-27T17:59:17.335Z,19.40
2018-04-27T18:01:43.647Z,19.30
2018-04-27T18:04:10.152Z,19.10
2018-04-27T18:06:37.180Z,19.00
2018-04-27T18:09:04.110Z,18.70
2018-04-27T18:11:30.356Z,18.70
2018-04-27T18:13:57.205Z,18.50
2018-04-27T18:16:24.486Z,18.40
2018-04-27T18:18:51.630Z,18.20
2018-04-27T18:21:18.523Z,18.10
2018-04-27T18:23:44.674Z,18.10
2018-04-27T18:26:11.380Z,18.00
2018-04-27T18:28:37.637Z,17.80
2018-04-27T18:31:04.357Z,17.70
2018-04-27T18:33:31.387Z,17.30
2018-04-27T18:35:59.005Z,17.30
2018-04-27T18:38:26.493Z,17.20
2018-04-27T18:40:52.937Z,17.00
2018-04-27T18:43:19.834Z,16.80
2018-04-27T18:45:47.679Z,16.70
2018-04-27T18:50:50.925Z,16.50
2018-04-27T18:53:17.595Z,16.40
2018-04-27T18:55:44.420Z,16.40
2018-04-27T18:58:13.817Z,16.30
2018-04-27T19:00:40.763Z,16.20
2018-04-27T19:03:07.319Z,16.10
2018-04-27T19:05:33.519Z,16.10
2018-04-27T19:08:04.962Z,15.90
2018-04-27T19:10:32.311Z,15.80
2018-04-27T19:12:58.509Z,15.80
2018-04-27T19:15:25.281Z,15.70
2018-04-27T19:18:01.040Z,15.60
2018-04-27T19:20:27.646Z,15.60
2018-04-27T19:22:53.863Z,15.60
2018-04-27T19:25:20.826Z,15.60
2018-04-27T19:27:46.991Z,15.60
2018-04-27T19:30:15.130Z,15.60
2018-04-27T19:32:41.360Z,15.60
2018-04-27T19:35:07.570Z,15.50
2018-04-27T19:37:33.809Z,15.60
2018-04-27T19:40:00.000Z,15.50
2018-04-27T19:42:26.192Z,15.50
2018-04-27T19:44:52.441Z,15.50
2018-04-27T19:47:20.776Z,15.40
2018-04-27T19:49:51.063Z,15.40
2018-04-27T19:52:18.247Z,15.40
2018-04-27T19:54:46.528Z,15.40
2018-04-27T19:57:16.112Z,15.40
2018-04-27T19:59:44.985Z,15.40
2018-04-27T20:02:23.597Z,15.40
2018-04-27T20:05:07.661Z,15.40
2018-04-27T20:07:46.859Z,15.40
2018-04-27T20:10:23.608Z,15.40
2018-04-27T20:12:50.755Z,15.30
2018-04-27T20:15:19.100Z,15.30
2018-04-27T20:17:49.188Z,15.20
2018-04-27T20:20:18.267Z,15.10
2018-04-27T20:22:47.893Z,15.00
2018-04-27T20:25:14.134Z,15.00
2018-04-27T20:27:41.866Z,14.90
2018-04-27T20:30:10.089Z,14.80
2018-04-27T20:32:36.548Z,14.70
2018-04-27T20:35:05.039Z,14.70
2018-04-27T20:37:33.201Z,14.60
2018-04-27T20:39:59.621Z,14.60
2018-04-27T20:42:26.298Z,14.50
2018-04-27T20:44:52.684Z,14.50
2018-04-27T20:47:18.895Z,14.40
2018-04-27T20:49:46.012Z,14.10
2018-04-27T20:52:12.923Z,14.10
2018-04-27T20:54:40.064Z,14.00
2018-04-27T20:57:07.770Z,13.90
2018-04-27T20:59:46.312Z,13.90
2018-04-27T21:02:16.717Z,13.90
2018-04-27T21:04:53.368Z,13.80
2018-04-27T21:07:20.933Z,13.70
2018-04-27T21:15:43.318Z,13.80
2018-04-27T21:18:10.973Z,13.90
2018-04-27T21:20:37.147Z,13.80
2018-04-27T21:23:04.039Z,13.90
2018-04-27T21:25:30.979Z,13.80
2018-04-27T21:27:59.214Z,13.90
2018-04-27T21:30:26.102Z,13.90
2018-04-27T21:32:57.951Z,13.90
2018-04-27T22:21:37.037Z,13.50
2018-04-27T22:24:03.160Z,13.40
2018-04-27T22:26:29.338Z,13.40
2018-04-27T22:28:57.277Z,13.30
2018-04-27T22:31:23.417Z,13.20
2018-04-27T22:33:52.688Z,13.10
2018-04-27T22:36:40.758Z,13.00
2018-04-27T22:39:18.367Z,12.90
2018-04-27T22:41:52.389Z,12.80
2018-04-27T22:44:18.521Z,12.80
2018-04-27T22:46:44.643Z,12.80
2018-04-27T22:49:14.490Z,12.70
2018-04-27T22:51:41.550Z,12.70
2018-04-27T23:08:16.618Z,12.50
2018-04-27T23:10:50.948Z,12.50
2018-04-27T23:13:19.549Z,12.50
2018-04-27T23:15:45.662Z,12.40
2018-04-27T23:18:15.694Z,12.40
2018-04-27T23:20:44.605Z,12.50
2018-04-27T23:23:11.538Z,12.40
2018-04-27T23:25:37.655Z,12.40
2018-04-27T23:28:03.779Z,12.40
2018-04-27T23:30:30.823Z,12.40
2018-04-27T23:32:56.962Z,12.40
2018-04-27T23:35:23.122Z,12.30
2018-04-27T23:37:49.242Z,12.30
2018-04-27T23:40:15.381Z,12.30
2018-04-27T23:42:41.544Z,12.30
2018-04-27T23:45:08.441Z,12.30
2018-04-27T23:47:34.562Z,12.30
2018-04-27T23:50:00.691Z,12.30
2018-04-27T23:52:26.822Z,12.20
2018-04-27T23:54:52.929Z,12.20
2018-04-27T23:57:19.875Z,12.10
2018-04-27T23:59:45.993Z,12.10
